createdAt,value
2022-11-05T00:01:14.370Z,10.85
2022-11-05T00:03:59.332Z,10.83
2022-11-05T00:06:44.439Z,10.81
2022-11-05T00:09:29.676Z,10.80
2022-11-05T00:12:20.432Z,10.80
2022-11-05T00:15:05.686Z,10.78
2022-11-05T00:17:32.363Z,10.77
2022-11-05T00:19:59.198Z,10.76
2022-11-05T00:22:47.383Z,10.76
2022-11-05T00:25:14.023Z,10.76
2022-11-05T00:27:51.603Z,10.77
2022-11-05T00:30:24.042Z,10.77
2022-11-05T00:32:52.417Z,10.77
2022-11-05T00:35:21.312Z,10.80
2022-11-05T00:37:50.383Z,10.83
2022-11-05T00:40:17.747Z,10.80
2022-11-05T00:43:03.022Z,10.80
2022-11-05T00:45:30.879Z,10.82
2022-11-05T00:48:16.279Z,10.84
2022-11-05T00:50:42.794Z,10.84
2022-11-05T00:53:09.505Z,10.88
2022-11-05T00:55:41.858Z,10.91
2022-11-05T00:58:12.070Z,10.93
2022-11-05T01:00:44.550Z,10.99
2022-11-05T01:03:14.229Z,10.98
2022-11-05T01:05:47.132Z,10.98
2022-11-05T01:08:14.767Z,10.97
2022-11-05T01:10:52.419Z,10.95
2022-11-05T01:13:22.163Z,10.95
2022-11-05T01:15:50.886Z,10.94
2022-11-05T01:18:18.912Z,10.94
2022-11-05T01:20:46.180Z,10.93
2022-11-05T01:23:13.876Z,10.90
2022-11-05T01:25:42.017Z,10.88
2022-11-05T01:28:09.621Z,10.85
2022-11-05T01:30:36.986Z,10.82
2022-11-05T01:33:03.578Z,10.79
2022-11-05T01:35:30.083Z,10.77
2022-11-05T01:37:56.487Z,10.76
2022-11-05T01:40:24.283Z,10.71
2022-11-05T01:42:51.002Z,10.70
2022-11-05T01:45:26.656Z,10.67
2022-11-05T01:48:03.076Z,10.62
2022-11-05T01:50:49.245Z,10.59
2022-11-05T01:53:26.974Z,10.56
2022-11-05T01:56:07.928Z,10.50
2022-11-05T01:58:59.455Z,10.44
2022-11-05T02:01:26.347Z,10.44
2022-11-05T02:03:57.959Z,10.43
2022-11-05T02:06:27.361Z,10.43
2022-11-05T02:09:15.819Z,10.40
2022-11-05T02:11:42.452Z,10.36
2022-11-05T02:14:08.858Z,10.36
2022-11-05T02:17:12.974Z,10.30
2022-11-05T02:20:09.397Z,10.26
2022-11-05T02:23:20.521Z,10.24
2022-11-05T02:26:24.739Z,10.25
2022-11-05T02:29:06.565Z,10.26
2022-11-05T02:31:39.631Z,10.27
2022-11-05T02:34:24.800Z,10.27
2022-11-05T02:37:13.051Z,10.26
2022-11-05T02:40:09.705Z,10.26
2022-11-05T02:42:48.614Z,10.24
2022-11-05T02:45:28.792Z,10.24
2022-11-05T02:48:07.637Z,10.22
2022-11-05T02:50:40.100Z,10.20
2022-11-05T02:53:45.111Z,10.16
2022-11-05T02:56:39.376Z,10.13
2022-11-05T02:59:05.858Z,10.12
2022-11-05T03:01:33.975Z,10.09
2022-11-05T03:04:06.654Z,10.06
2022-11-05T03:07:03.839Z,10.07
2022-11-05T03:09:47.147Z,10.06
2022-11-05T03:12:22.728Z,10.06
2022-11-05T03:15:15.475Z,10.05
2022-11-05T03:18:13.023Z,10.04
2022-11-05T03:20:51.554Z,10.02
2022-11-05T03:23:27.065Z,10.01
2022-11-05T03:26:06.538Z,10.00
2022-11-05T03:28:39.726Z,9.98
2022-11-05T03:31:07.876Z,9.93
2022-11-05T03:33:38.541Z,9.90
2022-11-05T03:36:13.847Z,9.91
2022-11-05T03:38:44.840Z,9.89
2022-11-05T03:41:15.156Z,9.89
2022-11-05T03:43:46.806Z,9.87
2022-11-05T03:46:24.624Z,9.84
2022-11-05T03:48:55.360Z,9.85
2022-11-05T03:51:46.607Z,9.87
2022-11-05T03:54:13.588Z,9.86
2022-11-05T03:56:52.079Z,9.82
2022-11-05T03:59:20.004Z,9.81
2022-11-05T04:01:47.828Z,9.78
2022-11-05T04:04:14.487Z,9.78
2022-11-05T04:06:59.690Z,9.78
2022-11-05T04:09:45.319Z,9.79
2022-11-05T04:12:30.065Z,9.76
2022-11-05T04:14:56.961Z,9.75
2022-11-05T04:17:23.317Z,9.72
2022-11-05T04:20:08.304Z,9.71
2022-11-05T04:22:54.721Z,9.70
2022-11-05T04:25:22.206Z,9.73
2022-11-05T04:27:48.699Z,9.74
2022-11-05T04:30:20.322Z,9.73
2022-11-05T04:33:05.391Z,9.74
2022-11-05T04:35:34.984Z,9.71
2022-11-05T04:38:02.423Z,9.70
2022-11-05T04:40:29.866Z,9.67
2022-11-05T04:42:57.092Z,9.61
2022-11-05T04:45:25.156Z,9.55
2022-11-05T04:47:53.347Z,9.47
2022-11-05T04:50:20.079Z,9.48
2022-11-05T04:52:46.509Z,9.42
2022-11-05T04:55:14.565Z,9.35
2022-11-05T04:57:41.113Z,9.21
2022-11-05T05:00:09.126Z,9.26
2022-11-05T05:02:36.532Z,9.31
2022-11-05T05:05:03.352Z,9.38
2022-11-05T05:07:29.793Z,9.31
2022-11-05T05:09:56.318Z,9.27
2022-11-05T05:12:23.074Z,9.31
2022-11-05T05:14:49.583Z,9.38
2022-11-05T05:17:16.581Z,9.44
2022-11-05T05:20:02.067Z,9.44
2022-11-05T05:22:29.213Z,9.45
2022-11-05T05:24:56.672Z,9.47
2022-11-05T05:27:24.064Z,9.49
2022-11-05T05:29:50.631Z,9.52
2022-11-05T05:32:17.263Z,9.53
2022-11-05T05:34:43.639Z,9.52
2022-11-05T05:37:10.233Z,9.53
2022-11-05T05:39:36.646Z,9.53
2022-11-05T05:42:03.101Z,9.46
2022-11-05T05:44:29.454Z,9.42
2022-11-05T05:46:55.887Z,9.41
2022-11-05T05:49:22.412Z,9.22
2022-11-05T05:51:49.728Z,9.09
2022-11-05T05:54:16.598Z,9.14
2022-11-05T05:56:44.289Z,9.23
2022-11-05T05:59:10.955Z,9.29
2022-11-05T06:01:37.693Z,9.31
2022-11-05T06:04:04.409Z,9.30
2022-11-05T06:06:31.113Z,9.28
2022-11-05T06:08:57.670Z,9.26
2022-11-05T06:11:24.972Z,9.19
2022-11-05T06:13:51.714Z,9.10
2022-11-05T06:16:19.434Z,9.06
2022-11-05T06:18:46.109Z,8.99
2022-11-05T06:21:14.824Z,9.00
2022-11-05T06:23:42.773Z,9.01
2022-11-05T06:26:15.692Z,8.99
2022-11-05T06:28:42.447Z,8.91
2022-11-05T06:31:10.879Z,8.90
2022-11-05T06:33:37.436Z,8.87
2022-11-05T06:36:05.917Z,8.82
2022-11-05T06:38:34.962Z,8.80
2022-11-05T06:41:07.235Z,8.85
2022-11-05T06:43:36.742Z,8.84
2022-11-05T06:46:03.394Z,8.85
2022-11-05T06:48:30.116Z,8.77
2022-11-05T06:50:56.504Z,8.73
2022-11-05T06:53:23.578Z,8.74
2022-11-05T06:55:50.013Z,8.71
2022-11-05T06:58:16.474Z,8.63
2022-11-05T07:00:43.027Z,8.56
2022-11-05T07:03:11.880Z,8.54
2022-11-05T07:05:42.139Z,8.54
2022-11-05T07:08:08.554Z,8.58
2022-11-05T07:10:34.965Z,8.56
2022-11-05T07:13:05.125Z,8.58
2022-11-05T07:15:34.529Z,8.64
2022-11-05T07:18:01.250Z,8.64
2022-11-05T07:20:33.580Z,8.67
2022-11-05T07:23:06.293Z,8.69
2022-11-05T07:25:33.849Z,8.77
2022-11-05T07:28:00.431Z,8.82
2022-11-05T07:30:28.298Z,8.85
2022-11-05T07:32:55.066Z,8.81
2022-11-05T07:35:21.464Z,8.85
2022-11-05T07:37:49.997Z,8.92
2022-11-05T07:40:19.328Z,8.91
2022-11-05T07:42:48.178Z,8.93
2022-11-05T07:45:15.550Z,8.93
2022-11-05T07:47:53.141Z,8.97
2022-11-05T07:50:21.945Z,8.96
2022-11-05T07:52:48.927Z,8.96
2022-11-05T07:55:16.044Z,9.00
2022-11-05T07:57:46.898Z,9.05
2022-11-05T08:00:16.116Z,9.13
2022-11-05T08:02:43.234Z,9.18
2022-11-05T08:05:10.572Z,9.30
2022-11-05T08:07:36.961Z,9.32
2022-11-05T08:10:04.267Z,9.29
2022-11-05T08:12:33.459Z,9.31
2022-11-05T08:14:59.817Z,9.29
2022-11-05T08:17:26.355Z,9.33
2022-11-05T08:19:52.718Z,9.39
2022-11-05T08:22:19.304Z,9.43
2022-11-05T08:24:45.708Z,9.47
2022-11-05T08:27:12.378Z,9.52
2022-11-05T08:29:38.882Z,9.60
2022-11-05T08:32:05.437Z,9.62
2022-11-05T08:34:31.903Z,9.68
2022-11-05T08:37:00.771Z,9.70
2022-11-05T08:39:27.543Z,9.72
2022-11-05T08:41:54.052Z,9.72
2022-11-05T08:44:20.528Z,9.78
2022-11-05T08:46:46.925Z,9.82
2022-11-05T08:49:13.295Z,9.83
2022-11-05T08:51:39.877Z,9.88
2022-11-05T08:54:06.637Z,9.91
2022-11-05T08:56:33.034Z,9.99
2022-11-05T08:59:00.746Z,10.04
2022-11-05T09:01:27.377Z,10.11
2022-11-05T09:03:54.215Z,10.17
2022-11-05T09:06:20.737Z,10.23
2022-11-05T09:08:47.330Z,10.28
2022-11-05T09:11:14.224Z,10.36
2022-11-05T09:13:40.707Z,10.35
2022-11-05T09:16:18.074Z,10.27
2022-11-05T09:18:44.523Z,10.30
2022-11-05T09:21:11.119Z,10.39
2022-11-05T09:23:37.654Z,10.49
2022-11-05T09:26:04.166Z,10.59
2022-11-05T09:28:32.301Z,10.65
2022-11-05T09:30:58.805Z,10.71
2022-11-05T09:33:26.771Z,10.77
2022-11-05T09:35:53.895Z,10.81
2022-11-05T09:38:20.492Z,10.85
2022-11-05T09:41:14.714Z,10.91
2022-11-05T09:43:49.037Z,10.95
2022-11-05T09:46:21.967Z,11.06
2022-11-05T09:48:55.427Z,11.21
2022-11-05T09:51:24.094Z,11.36
2022-11-05T09:53:51.046Z,11.64
2022-11-05T09:56:27.005Z,12.11
2022-11-05T09:59:05.143Z,12.74
2022-11-05T10:01:36.068Z,14.15
2022-11-05T10:04:09.918Z,15.19
2022-11-05T10:06:42.846Z,16.12
2022-11-05T10:09:19.094Z,16.93
2022-11-05T10:11:50.274Z,17.51
2022-11-05T10:14:23.771Z,18.30
2022-11-05T10:17:00.213Z,18.84
2022-11-05T10:19:41.557Z,19.28
2022-11-05T10:22:13.654Z,19.71
2022-11-05T10:24:43.796Z,20.07
2022-11-05T10:27:21.051Z,20.38
2022-11-05T10:29:48.592Z,19.61
2022-11-05T10:32:27.711Z,18.87
2022-11-05T10:34:58.267Z,17.94
2022-11-05T10:37:25.279Z,17.19
2022-11-05T10:39:51.758Z,16.81
2022-11-05T10:42:38.189Z,16.33
2022-11-05T10:45:20.451Z,15.90
2022-11-05T10:48:18.680Z,15.95
2022-11-05T10:50:45.722Z,15.76
2022-11-05T10:53:20.345Z,15.65
2022-11-05T10:55:49.399Z,15.51
2022-11-05T10:58:15.671Z,14.93
2022-11-05T11:00:58.430Z,14.77
2022-11-05T11:03:43.486Z,14.95
2022-11-05T11:06:26.488Z,15.04
2022-11-05T11:08:56.822Z,15.06
2022-11-05T11:11:34.167Z,16.08
2022-11-05T11:14:19.574Z,17.44
2022-11-05T11:16:48.275Z,18.44
2022-11-05T11:19:20.569Z,20.01
2022-11-05T11:21:47.561Z,21.03
2022-11-05T11:24:23.288Z,21.90
2022-11-05T11:26:49.735Z,20.83
2022-11-05T11:29:26.624Z,18.99
2022-11-05T11:31:55.756Z,17.75
2022-11-05T11:34:27.125Z,16.79
2022-11-05T11:37:06.179Z,16.39
2022-11-05T11:39:33.717Z,16.97
2022-11-05T11:42:12.817Z,18.44
2022-11-05T11:44:46.548Z,20.58
2022-11-05T11:47:16.720Z,21.83
2022-11-05T11:49:51.154Z,23.15
2022-11-05T11:52:33.640Z,24.58
2022-11-05T11:55:09.226Z,24.93
2022-11-05T11:57:44.591Z,25.37
2022-11-05T12:00:11.752Z,25.76
2022-11-05T12:03:00.506Z,26.56
2022-11-05T12:05:53.031Z,26.65
2022-11-05T12:08:45.014Z,26.90
2022-11-05T12:11:21.354Z,27.03
2022-11-05T12:14:12.292Z,26.49
2022-11-05T12:16:58.607Z,26.37
2022-11-05T12:19:59.290Z,24.32
2022-11-05T12:22:37.708Z,22.47
2022-11-05T12:25:22.716Z,21.64
2022-11-05T12:28:07.437Z,20.79
2022-11-05T12:30:48.721Z,20.11
2022-11-05T12:33:27.345Z,19.51
2022-11-05T12:36:11.727Z,19.08
2022-11-05T12:39:19.128Z,18.79
2022-11-05T12:42:00.679Z,18.56
2022-11-05T12:44:52.208Z,18.05
2022-11-05T12:47:38.827Z,17.52
2022-11-05T12:50:16.911Z,17.18
2022-11-05T12:52:49.158Z,17.09
2022-11-05T12:55:20.405Z,16.85
2022-11-05T12:57:51.531Z,16.78
2022-11-05T13:00:20.285Z,16.80
2022-11-05T13:03:04.589Z,16.91
2022-11-05T13:10:42.722Z,16.55
2022-11-05T13:13:24.338Z,16.26
2022-11-05T13:15:52.431Z,16.07
2022-11-05T13:18:27.744Z,16.06
2022-11-05T13:20:56.244Z,15.98
2022-11-05T13:23:35.126Z,16.00
2022-11-05T13:26:37.360Z,16.10
2022-11-05T13:29:20.280Z,16.02
2022-11-05T13:31:58.602Z,15.76
2022-11-05T13:34:25.056Z,15.71
2022-11-05T13:37:15.418Z,15.77
2022-11-05T13:39:47.078Z,15.82
2022-11-05T13:42:35.879Z,15.70
2022-11-05T13:45:24.107Z,15.57
2022-11-05T13:48:29.290Z,15.27
2022-11-05T13:51:20.737Z,15.16
2022-11-05T13:54:15.549Z,15.13
2022-11-05T13:57:06.038Z,15.00
2022-11-05T13:59:55.326Z,14.84
2022-11-05T14:02:25.746Z,14.76
2022-11-05T14:05:00.927Z,14.79
2022-11-05T14:07:31.401Z,14.78
2022-11-05T14:10:09.993Z,14.80
2022-11-05T14:12:39.838Z,14.79
2022-11-05T14:15:24.509Z,14.66
2022-11-05T14:18:03.198Z,14.52
2022-11-05T14:20:32.524Z,14.40
2022-11-05T14:23:17.401Z,14.25
2022-11-05T14:25:43.755Z,14.13
2022-11-05T14:28:36.644Z,14.12
2022-11-05T14:31:20.089Z,14.18
2022-11-05T14:34:01.942Z,14.10
2022-11-05T14:36:30.295Z,14.01
2022-11-05T14:39:12.029Z,14.00
2022-11-05T14:41:57.008Z,14.06
2022-11-05T14:44:25.468Z,14.06
2022-11-05T14:46:56.032Z,13.91
2022-11-05T14:49:27.271Z,13.86
2022-11-05T14:51:56.474Z,13.82
2022-11-05T14:54:43.905Z,13.70
2022-11-05T14:57:42.210Z,13.57
2022-11-05T15:00:36.439Z,13.57
2022-11-05T15:03:24.499Z,13.53
2022-11-05T15:05:52.313Z,13.41
2022-11-05T15:08:29.686Z,13.32
2022-11-05T15:11:25.292Z,13.30
2022-11-05T15:14:05.441Z,13.25
2022-11-05T15:16:43.595Z,13.15
2022-11-05T15:19:20.017Z,13.07
2022-11-05T15:21:46.854Z,13.07
2022-11-05T15:24:19.546Z,13.06
2022-11-05T15:26:56.212Z,13.02
2022-11-05T15:29:26.787Z,13.01
2022-11-05T15:31:53.694Z,12.99
2022-11-05T15:34:24.632Z,12.89
2022-11-05T15:37:03.253Z,12.84
2022-11-05T15:39:40.274Z,12.81
2022-11-05T15:42:13.829Z,12.75
2022-11-05T15:44:42.690Z,12.74
2022-11-05T15:47:16.790Z,12.68
2022-11-05T15:49:46.594Z,12.62
2022-11-05T15:52:18.550Z,12.62
2022-11-05T15:54:45.576Z,12.59
2022-11-05T15:57:25.336Z,12.57
2022-11-05T15:59:51.837Z,12.60
2022-11-05T16:02:34.922Z,12.58
2022-11-05T16:05:09.594Z,12.50
2022-11-05T16:07:35.974Z,12.50
2022-11-05T16:10:06.056Z,12.50
2022-11-05T16:12:36.708Z,12.49
2022-11-05T16:15:08.759Z,12.52
2022-11-05T16:17:52.291Z,12.45
2022-11-05T16:20:27.384Z,12.44
2022-11-05T16:22:57.308Z,12.42
2022-11-05T16:25:39.651Z,12.42
2022-11-05T16:28:27.412Z,12.36
2022-11-05T16:31:05.226Z,12.32
2022-11-05T16:33:34.949Z,12.32
2022-11-05T16:36:01.375Z,12.31
2022-11-05T16:38:27.946Z,12.26
2022-11-05T16:40:54.292Z,12.29
2022-11-05T16:43:25.343Z,12.29
2022-11-05T16:45:57.251Z,12.31
2022-11-05T16:48:24.329Z,12.28
2022-11-05T16:50:51.212Z,12.28
2022-11-05T16:53:18.221Z,12.34
2022-11-05T16:55:45.693Z,12.28
2022-11-05T16:58:19.787Z,12.22
2022-11-05T17:00:47.088Z,12.19
2022-11-05T17:03:13.584Z,12.20
2022-11-05T17:05:39.935Z,12.23
2022-11-05T17:08:06.458Z,12.25
2022-11-05T17:10:32.901Z,12.29
2022-11-05T17:12:59.234Z,12.25
2022-11-05T17:15:31.147Z,12.24
2022-11-05T17:17:58.702Z,12.15
2022-11-05T17:20:44.214Z,12.11
2022-11-05T17:23:16.652Z,12.09
2022-11-05T17:25:45.702Z,12.12
2022-11-05T17:28:12.976Z,12.08
2022-11-05T17:30:41.615Z,12.07
2022-11-05T17:33:11.131Z,12.05
2022-11-05T17:35:39.907Z,12.02
2022-11-05T17:38:06.463Z,12.04
2022-11-05T17:40:34.501Z,12.03
2022-11-05T17:43:00.871Z,11.99
2022-11-05T17:45:27.382Z,11.88
2022-11-05T17:47:53.847Z,11.80
2022-11-05T17:50:20.279Z,11.81
2022-11-05T17:52:46.833Z,11.78
2022-11-05T17:55:17.449Z,11.84
2022-11-05T17:57:48.961Z,11.82
2022-11-05T18:00:18.241Z,11.81
2022-11-05T18:02:45.955Z,11.76
2022-11-05T18:05:12.496Z,11.70
2022-11-05T18:07:39.038Z,11.69
2022-11-05T18:10:06.490Z,11.73
2022-11-05T18:12:33.235Z,11.78
2022-11-05T18:14:59.668Z,11.77
2022-11-05T18:17:26.014Z,11.72
2022-11-05T18:19:52.442Z,11.76
2022-11-05T18:22:19.437Z,11.78
2022-11-05T18:24:46.535Z,11.73
2022-11-05T18:27:13.074Z,11.67
2022-11-05T18:29:39.498Z,11.65
2022-11-05T18:32:06.328Z,11.58
2022-11-05T18:34:32.904Z,11.54
2022-11-05T18:36:59.233Z,11.57
2022-11-05T18:39:26.329Z,11.56
2022-11-05T18:41:52.681Z,11.56
2022-11-05T18:44:22.794Z,11.59
2022-11-05T18:46:57.978Z,11.58
2022-11-05T18:49:25.729Z,11.53
2022-11-05T18:51:52.081Z,11.50
2022-11-05T18:54:18.891Z,11.55
2022-11-05T18:56:45.700Z,11.56
2022-11-05T18:59:35.955Z,11.51
2022-11-05T19:02:01.244Z,11.46
2022-11-05T19:04:27.822Z,11.47
2022-11-05T19:06:54.315Z,11.46
2022-11-05T19:09:20.778Z,11.48
2022-11-05T19:11:47.443Z,11.46
2022-11-05T19:14:13.793Z,11.46
2022-11-05T19:16:40.354Z,11.49
2022-11-05T19:19:06.909Z,11.52
2022-11-05T19:21:33.466Z,11.52
2022-11-05T19:24:03.326Z,11.49
2022-11-05T19:26:29.918Z,11.52
2022-11-05T19:29:01.632Z,11.58
2022-11-05T19:31:29.079Z,11.56
2022-11-05T19:33:55.938Z,11.54
2022-11-05T19:36:24.110Z,11.51
2022-11-05T19:38:59.666Z,11.53
2022-11-05T19:41:27.108Z,11.53
2022-11-05T19:43:54.809Z,11.54
2022-11-05T19:46:23.067Z,11.54
2022-11-05T19:48:51.065Z,11.54
2022-11-05T19:51:21.466Z,11.52
2022-11-05T19:53:48.419Z,11.53
2022-11-05T19:56:18.112Z,11.57
2022-11-05T19:58:45.052Z,11.56
2022-11-05T20:01:13.901Z,11.59
2022-11-05T20:03:40.841Z,11.57
2022-11-05T20:06:12.573Z,11.52
2022-11-05T20:08:59.718Z,11.46
2022-11-05T20:11:26.802Z,11.40
2022-11-05T20:13:53.250Z,11.40
2022-11-05T20:16:22.418Z,11.43
2022-11-05T20:18:48.866Z,11.43
2022-11-05T20:21:15.677Z,11.41
2022-11-05T20:23:42.662Z,11.47
2022-11-05T20:26:10.338Z,11.45
2022-11-05T20:28:38.505Z,11.44
2022-11-05T20:31:15.995Z,11.42
2022-11-05T20:33:43.818Z,11.36
2022-11-05T20:36:14.211Z,11.31
2022-11-05T20:38:40.669Z,11.32
2022-11-05T20:41:09.129Z,11.29
2022-11-05T20:43:36.721Z,11.27
2022-11-05T20:46:03.942Z,11.24
2022-11-05T20:48:32.451Z,11.22
2022-11-05T20:51:00.225Z,11.22
2022-11-05T20:53:26.747Z,11.23
2022-11-05T20:55:53.191Z,11.20
2022-11-05T20:58:19.550Z,11.15
2022-11-05T21:00:51.518Z,11.16
2022-11-05T21:03:18.898Z,11.17
2022-11-05T21:05:50.233Z,11.18
2022-11-05T21:08:16.754Z,11.14
2022-11-05T21:10:50.041Z,11.16
2022-11-05T21:13:17.643Z,11.16
2022-11-05T21:15:50.054Z,11.14
2022-11-05T21:18:21.574Z,11.13
2022-11-05T21:20:48.409Z,11.16
2022-11-05T21:23:15.561Z,11.13
2022-11-05T21:25:43.048Z,11.13
2022-11-05T21:28:11.207Z,11.15
2022-11-05T21:30:41.382Z,11.12
2022-11-05T21:33:08.786Z,11.10
2022-11-05T21:35:40.328Z,11.08
2022-11-05T21:38:07.267Z,11.04
2022-11-05T21:40:33.824Z,11.04
2022-11-05T21:43:00.182Z,11.04
2022-11-05T21:45:26.708Z,11.04
2022-11-05T21:47:53.215Z,11.06
2022-11-05T21:50:21.918Z,11.08
2022-11-05T21:53:07.073Z,11.07
2022-11-05T21:55:52.004Z,11.06
2022-11-05T21:58:37.504Z,11.09
2022-11-05T22:01:03.957Z,11.09
2022-11-05T22:03:30.355Z,11.06
2022-11-05T22:05:57.203Z,11.02
2022-11-05T22:08:23.553Z,11.01
2022-11-05T22:10:50.014Z,10.96
2022-11-05T22:13:16.560Z,10.98
2022-11-05T22:15:42.928Z,10.98
2022-11-05T22:18:09.642Z,10.97
2022-11-05T22:20:38.719Z,10.96
2022-11-05T22:23:10.076Z,10.94
2022-11-05T22:25:37.917Z,10.92
2022-11-05T22:28:04.489Z,10.89
2022-11-05T22:30:35.326Z,10.87
2022-11-05T22:33:02.388Z,10.81
2022-11-05T22:35:29.121Z,10.81
2022-11-05T22:37:55.465Z,10.82
2022-11-05T22:40:24.013Z,10.82
2022-11-05T22:42:50.749Z,10.78
2022-11-05T22:45:17.156Z,10.77
2022-11-05T22:47:43.565Z,10.72
2022-11-05T22:50:10.358Z,10.72
2022-11-05T22:52:36.710Z,10.75
2022-11-05T22:55:05.075Z,10.78
2022-11-05T22:57:31.570Z,10.77
2022-11-05T22:59:58.011Z,10.80
2022-11-05T23:02:24.729Z,10.82
2022-11-05T23:04:52.005Z,10.81
2022-11-05T23:07:37.280Z,10.82
2022-11-05T23:10:22.687Z,10.83
2022-11-05T23:12:49.205Z,10.87
2022-11-05T23:15:34.629Z,10.82
2022-11-05T23:18:20.000Z,10.77
2022-11-05T23:21:04.931Z,10.77
2022-11-05T23:23:49.785Z,10.80
2022-11-05T23:26:34.929Z,10.82
2022-11-05T23:29:01.307Z,10.84
2022-11-05T23:31:46.265Z,10.76
2022-11-05T23:34:12.626Z,10.71
2022-11-05T23:36:57.609Z,10.70
2022-11-05T23:39:23.989Z,10.71
2022-11-05T23:42:08.761Z,10.66
2022-11-05T23:44:53.635Z,10.60
2022-11-05T23:47:38.476Z,10.67
2022-11-05T23:50:05.344Z,10.69
2022-11-05T23:52:31.699Z,10.74
2022-11-05T23:54:58.044Z,10.76
2022-11-05T23:57:24.448Z,10.80
2022-11-05T23:59:50.789Z,10.78
